Aida — SBLI — position and weather

sailwx.info

Track history (hours):
 
Tides and Currents Weather Stations Pressure Air Temp Water Temp Dewpoint Dewpoint Depression Visibility Wind Speed Wind Dir Waves Ship Positions

Aida

Last reported at 2014-Sep-19 23:31 UTC. Time now 2014-Sep-19 23:58 UTC.
Position N 19°12' W 096°08'.

Length 199.1 m; beam 32.3 m; draft 9.5 m.

Type: Cargo ship. MMSI: 266211000.

Date/timePositionNaut miles runAvg speedWind from/ knotsBaromVisibWave heightAir tempDewpointWater temp
2014-Sep-19 23:31N 19°12' W 096°08'0 0.0
2014-Sep-19 22:31N 19°12' W 096°08'0 0.0
2014-Sep-19 21:31N 19°12' W 096°08'0 0.0
2014-Sep-19 20:31N 19°12' W 096°08'0 0.0
2014-Sep-19 19:31N 19°12' W 096°08'0 0.0
2014-Sep-19 18:31N 19°12' W 096°08'0 0.0
2014-Sep-19 17:31N 19°12' W 096°08'0 0.0
2014-Sep-19 16:31N 19°12' W 096°08'4 4.2
2014-Sep-19 15:34N 19°12' W 096°04'10 9.7
2014-Sep-19 14:34N 19°16' W 095°55'2 2.2
2014-Sep-19 13:32N 19°18' W 095°55'0 0.3
2014-Sep-19 12:29N 19°18' W 095°55'1 0.7
2014-Sep-19 11:34N 19°19' W 095°55'1110.5
2014-Sep-19 10:33N 19°29' W 095°58'6615.3
2014-Sep-19 06:13N 20°35' W 095°46'37315.4
2014-Sep-18 06:00N 26°42' W 094°36'15915.2 180 / 121012.610.8 28.7 29.9
2014-Sep-17 19:33N 29°21' W 094°43'  
2014-Sep-15 05:14N 25°02' W 080°12'1014.7
2014-Sep-15 04:33N 25°11' W 080°07'1414.2
2014-Sep-15 03:33N 25°24' W 080°02'1414.1
2014-Sep-15 02:33N 25°38' W 080°00'1414.4
2014-Sep-15 01:33N 25°53' W 079°59'1514.8
2014-Sep-15 00:33N 26°08' W 079°58'1514.8
2014-Sep-14 23:33N 26°22' W 079°58'1514.7
2014-Sep-14 22:34N 26°37' W 079°57'1414.3
2014-Sep-14 21:33N 26°51' W 079°57'1413.8
2014-Sep-14 20:33N 27°05' W 079°54'46010.2
2014-Sep-12 23:19N 34°09' W 076°27'1715.5
2014-Sep-12 22:15N 34°20' W 076°12'1116.3
2014-Sep-12 21:33N 34°29' W 076°02'22016.8
2014-Sep-12 08:29N 37°55' W 074°28'1718.2
2014-Sep-12 07:33N 38°11' W 074°25'1817.7
2014-Sep-12 06:32N 38°28' W 074°17'1918.1
2014-Sep-12 05:30N 38°47' W 074°11'1817.9
2014-Sep-12 04:30N 39°04' W 074°06'1717.5
2014-Sep-12 03:33N 39°20' W 074°00'1717.4
2014-Sep-12 02:34N 39°37' W 073°55'1717.3
2014-Sep-12 01:33N 39°54' W 073°51'1717.3
2014-Sep-12 00:33N 40°11' W 073°49'1615.6
2014-Sep-11 23:34N 40°27' W 073°50'1711.7
2014-Sep-11 22:08N 40°39' W 074°05'3 5.6
2014-Sep-11 21:32N 40°39' W 074°09'3 2.7
2014-Sep-11 20:29N 40°42' W 074°09'0 0.0
2014-Sep-11 18:32N 40°42' W 074°09'0 0.0
2014-Sep-11 17:32N 40°42' W 074°09'1 0.8
2014-Sep-11 16:33N 40°41' W 074°08'4 4.0
2014-Sep-11 15:33N 40°39' W 074°03'1 1.1
2014-Sep-11 14:33N 40°40' W 074°04'0 0.0
2014-Sep-11 13:33N 40°40' W 074°04'0 0.0
2014-Sep-11 12:33N 40°40' W 074°04'0 0.0
2014-Sep-11 11:33N 40°40' W 074°04'1 1.3
2014-Sep-11 10:33N 40°39' W 074°03'1010.4
2014-Sep-11 09:33N 40°30' W 073°56'1110.7
2014-Sep-11 08:34N 40°27' W 073°43'1515.0
2014-Sep-11 07:34N 40°28' W 073°23'1515.3
2014-Sep-11 06:34N 40°29' W 073°03'1515.1
2014-Sep-11 05:34N 40°30' W 072°43'1515.1
2014-Sep-11 04:34N 40°30' W 072°24'1615.6
2014-Sep-11 03:34N 40°31' W 072°03'1615.7
2014-Sep-11 02:34N 40°31' W 071°42'1515.4
2014-Sep-11 01:34N 40°31' W 071°22'1515.1
2014-Sep-11 00:34N 40°32' W 071°02'1615.6
2014-Sep-10 23:34N 40°32' W 070°42'1615.8
2014-Sep-10 22:34N 40°33' W 070°21'1716.7
2014-Sep-10 21:34N 40°33' W 069°59'1716.9
2014-Sep-10 20:34N 40°33' W 069°37'1716.6
2014-Sep-10 19:34N 40°35' W 069°15'1616.0
2014-Sep-10 18:34N 40°40' W 068°55'1715.4
2014-Sep-10 17:26N 40°48' W 068°34'1315.2
2014-Sep-10 16:33N 40°54' W 068°19'16215.4
2014-Sep-10 06:00N 42°30' W 065°24'   060 / 161021.610.8 17.4 17.1
Track history (hours):
 
Tides and Currents Weather Stations Pressure Air Temp Water Temp Dewpoint Dewpoint Depression Visibility Wind Speed Wind Dir Waves Ship Positions

Aida

Last reported at 2014-Sep-19 23:31 UTC. Time now 2014-Sep-19 23:58 UTC.
Position N 19°12' W 096°08'.

Length 199.1 m; beam 32.3 m; draft 9.5 m.

Type: Cargo ship. MMSI: 266211000.

Date/timePositionNaut miles runAvg speedWind from/ knotsBaromVisibWave heightAir tempDewpointWater temp
2014-Sep-19 23:31N 19°12' W 096°08'0 0.0
2014-Sep-19 22:31N 19°12' W 096°08'0 0.0
2014-Sep-19 21:31N 19°12' W 096°08'0 0.0
2014-Sep-19 20:31N 19°12' W 096°08'0 0.0
2014-Sep-19 19:31N 19°12' W 096°08'0 0.0
2014-Sep-19 18:31N 19°12' W 096°08'0 0.0
2014-Sep-19 17:31N 19°12' W 096°08'0 0.0
2014-Sep-19 16:31N 19°12' W 096°08'4 4.2
2014-Sep-19 15:34N 19°12' W 096°04'10 9.7
2014-Sep-19 14:34N 19°16' W 095°55'2 2.2
2014-Sep-19 13:32N 19°18' W 095°55'0 0.3
2014-Sep-19 12:29N 19°18' W 095°55'1 0.7
2014-Sep-19 11:34N 19°19' W 095°55'1110.5
2014-Sep-19 10:33N 19°29' W 095°58'6615.3
2014-Sep-19 06:13N 20°35' W 095°46'37315.4
2014-Sep-18 06:00N 26°42' W 094°36'15915.2 180 / 121012.610.8 28.7 29.9
2014-Sep-17 19:33N 29°21' W 094°43'  
2014-Sep-15 05:14N 25°02' W 080°12'1014.7
2014-Sep-15 04:33N 25°11' W 080°07'1414.2
2014-Sep-15 03:33N 25°24' W 080°02'1414.1
2014-Sep-15 02:33N 25°38' W 080°00'1414.4
2014-Sep-15 01:33N 25°53' W 079°59'1514.8
2014-Sep-15 00:33N 26°08' W 079°58'1514.8
2014-Sep-14 23:33N 26°22' W 079°58'1514.7
2014-Sep-14 22:34N 26°37' W 079°57'1414.3
2014-Sep-14 21:33N 26°51' W 079°57'1413.8
2014-Sep-14 20:33N 27°05' W 079°54'46010.2
2014-Sep-12 23:19N 34°09' W 076°27'1715.5
2014-Sep-12 22:15N 34°20' W 076°12'1116.3
2014-Sep-12 21:33N 34°29' W 076°02'22016.8
2014-Sep-12 08:29N 37°55' W 074°28'1718.2
2014-Sep-12 07:33N 38°11' W 074°25'1817.7
2014-Sep-12 06:32N 38°28' W 074°17'1918.1
2014-Sep-12 05:30N 38°47' W 074°11'1817.9
2014-Sep-12 04:30N 39°04' W 074°06'1717.5
2014-Sep-12 03:33N 39°20' W 074°00'1717.4
2014-Sep-12 02:34N 39°37' W 073°55'1717.3
2014-Sep-12 01:33N 39°54' W 073°51'1717.3
2014-Sep-12 00:33N 40°11' W 073°49'1615.6
2014-Sep-11 23:34N 40°27' W 073°50'1711.7
2014-Sep-11 22:08N 40°39' W 074°05'3 5.6
2014-Sep-11 21:32N 40°39' W 074°09'3 2.7
2014-Sep-11 20:29N 40°42' W 074°09'0 0.0
2014-Sep-11 18:32N 40°42' W 074°09'0 0.0
2014-Sep-11 17:32N 40°42' W 074°09'1 0.8
2014-Sep-11 16:33N 40°41' W 074°08'4 4.0
2014-Sep-11 15:33N 40°39' W 074°03'1 1.1
2014-Sep-11 14:33N 40°40' W 074°04'0 0.0
2014-Sep-11 13:33N 40°40' W 074°04'0 0.0
2014-Sep-11 12:33N 40°40' W 074°04'0 0.0
2014-Sep-11 11:33N 40°40' W 074°04'1 1.3
2014-Sep-11 10:33N 40°39' W 074°03'1010.4
2014-Sep-11 09:33N 40°30' W 073°56'1110.7
2014-Sep-11 08:34N 40°27' W 073°43'1515.0
2014-Sep-11 07:34N 40°28' W 073°23'1515.3
2014-Sep-11 06:34N 40°29' W 073°03'1515.1
2014-Sep-11 05:34N 40°30' W 072°43'1515.1
2014-Sep-11 04:34N 40°30' W 072°24'1615.6
2014-Sep-11 03:34N 40°31' W 072°03'1615.7
2014-Sep-11 02:34N 40°31' W 071°42'1515.4
2014-Sep-11 01:34N 40°31' W 071°22'1515.1
2014-Sep-11 00:34N 40°32' W 071°02'1615.6
2014-Sep-10 23:34N 40°32' W 070°42'1615.8
2014-Sep-10 22:34N 40°33' W 070°21'1716.7
2014-Sep-10 21:34N 40°33' W 069°59'1716.9
2014-Sep-10 20:34N 40°33' W 069°37'1716.6
2014-Sep-10 19:34N 40°35' W 069°15'1616.0
2014-Sep-10 18:34N 40°40' W 068°55'1715.4
2014-Sep-10 17:26N 40°48' W 068°34'1315.2
2014-Sep-10 16:33N 40°54' W 068°19'16215.4
2014-Sep-10 06:00N 42°30' W 065°24'   060 / 161021.610.8 17.4 17.1

Dump ship's entire track history